Time;durP1;ratioP1;P1;durP2;ratioP2;P2;SDS_P1;SDS_P2;PMS_P1;PMS_P2;Temp;Humidity;BMP_temperature;BMP_pressure;BME280_temperature;BME280_humidity;BME280_pressure;Samples;Min_cycle;Max_cycle;Signal;HPM_P1;HPM_P2
2022/11/22 05:00:30;;;;;;;6.67;3.40;;;6.90;99.90;;;;;;5924828;23;20398;-62
2022/11/22 05:02:57;;;;;;;6.00;3.77;;;6.80;99.90;;;;;;4978340;28;20858;-61
2022/11/22 05:05:24;;;;;;;7.17;3.10;;;6.80;99.90;;;;;;4979488;28;20454;-62
2022/11/22 05:07:51;;;;;;;6.17;3.13;;;6.80;99.90;;;;;;4979515;28;20454;-63
2022/11/22 05:10:18;;;;;;;10.20;3.80;;;6.80;99.90;;;;;;4978953;28;21012;-62
2022/11/22 05:12:44;;;;;;;7.23;3.07;;;6.70;99.90;;;;;;4979056;28;20454;-63
2022/11/22 05:15:11;;;;;;;6.97;2.90;;;6.70;99.90;;;;;;4978990;28;20861;-62
2022/11/22 05:17:39;;;;;;;5.13;2.83;;;6.70;99.90;;;;;;4978908;28;20454;-62
2022/11/22 05:20:09;;;;;;;7.67;2.60;;;6.70;99.90;;;;;;4979173;28;20454;-61
2022/11/22 05:25:21;;;;;;;6.40;3.10;;;6.60;99.90;;;;;;4978976;28;20494;-62
2022/11/22 05:27:47;;;;;;;6.50;2.50;;;6.60;99.90;;;;;;4979038;28;20455;-62
2022/11/22 05:30:14;;;;;;;5.60;2.73;;;6.70;99.90;;;;;;4978730;28;20465;-62
2022/11/22 05:32:42;;;;;;;4.73;2.60;;;6.60;99.90;;;;;;4984069;28;20457;-62
2022/11/22 05:35:09;;;;;;;3.43;2.70;;;6.60;99.90;;;;;;4981812;28;20807;-62
2022/11/22 05:37:35;;;;;;;6.63;3.03;;;6.60;99.90;;;;;;4980903;28;20463;-61
2022/11/22 05:40:02;;;;;;;5.13;3.40;;;6.60;99.90;;;;;;4979361;28;20482;-62
2022/11/22 05:42:29;;;;;;;6.50;3.13;;;6.50;99.90;;;;;;4978195;28;20486;-63
2022/11/22 05:44:56;;;;;;;5.30;2.60;;;6.50;99.90;;;;;;4978342;28;20938;-62
2022/11/22 05:47:22;;;;;;;4.73;3.13;;;6.50;99.90;;;;;;4978108;28;21067;-62
2022/11/22 05:49:50;;;;;;;3.37;2.57;;;6.50;99.90;;;;;;4978583;28;20455;-62
2022/11/22 05:52:17;;;;;;;8.70;2.80;;;6.50;99.90;;;;;;4978212;28;20474;-62
2022/11/22 05:54:44;;;;;;;4.73;2.50;;;6.50;99.90;;;;;;4978968;28;20454;-62
2022/11/22 05:57:10;;;;;;;4.97;2.93;;;6.50;99.90;;;;;;4977696;28;20883;-62
2022/11/22 05:59:37;;;;;;;6.97;3.23;;;6.50;99.90;;;;;;4977835;28;20546;-63
2022/11/22 06:02:03;;;;;;;6.57;3.50;;;6.60;99.90;;;;;;4977525;28;21001;-62
2022/11/22 06:04:30;;;;;;;4.23;2.27;;;6.60;99.90;;;;;;4978530;28;20509;-61
2022/11/22 06:06:58;;;;;;;10.17;3.17;;;6.60;99.90;;;;;;4978026;28;20946;-62
2022/11/22 06:09:25;;;;;;;10.10;3.23;;;6.70;99.90;;;;;;4977979;28;20957;-61
2022/11/22 06:11:51;;;;;;;8.67;2.90;;;6.70;99.90;;;;;;4978399;28;20838;-61
2022/11/22 06:14:18;;;;;;;3.13;2.83;;;7.00;99.90;;;;;;4977225;28;20996;-61
2022/11/22 06:16:45;;;;;;;7.37;3.00;;;7.10;99.90;;;;;;4977370;28;20510;-61
2022/11/22 06:19:12;;;;;;;4.27;2.97;;;7.40;99.90;;;;;;4977396;28;20541;-61
2022/11/22 06:21:39;;;;;;;4.77;2.70;;;7.60;99.90;;;;;;4977060;28;20510;-61
2022/11/22 06:24:08;;;;;;;7.23;3.57;;;7.70;99.90;;;;;;4977154;28;20458;-62
2022/11/22 06:26:35;;;;;;;4.57;3.37;;;7.70;99.90;;;;;;4977283;28;20801;-62
2022/11/22 06:29:02;;;;;;;3.87;3.27;;;7.70;99.90;;;;;;4977226;28;20455;-62
2022/11/22 06:31:29;;;;;;;7.70;3.07;;;7.70;99.90;;;;;;4977000;28;20471;-62
2022/11/22 06:33:58;;;;;;;5.83;3.10;;;7.60;99.90;;;;;;4977163;28;20459;-62
2022/11/22 06:36:26;;;;;;;4.17;3.20;;;7.50;99.90;;;;;;4977137;28;20462;-65
2022/11/22 06:38:53;;;;;;;4.30;2.97;;;7.40;99.90;;;;;;4977082;28;20455;-66
2022/11/22 06:41:23;;;;;;;4.40;2.73;;;7.30;99.90;;;;;;4977064;28;20475;-66
2022/11/22 06:43:52;;;;;;;11.23;3.83;;;7.30;99.90;;;;;;4976812;28;20454;-66
2022/11/22 06:46:20;;;;;;;6.57;3.47;;;7.20;99.90;;;;;;4976864;28;20455;-66
2022/11/22 06:48:48;;;;;;;7.60;3.37;;;7.20;99.90;;;;;;4976564;28;20799;-65
2022/11/22 06:51:16;;;;;;;4.23;3.83;;;7.20;99.90;;;;;;4977394;28;20475;-66
2022/11/22 06:53:43;;;;;;;8.97;3.90;;;7.10;99.90;;;;;;4976542;28;20964;-66
2022/11/22 06:56:12;;;;;;;4.30;3.70;;;7.10;99.90;;;;;;4976684;28;20469;-66
2022/11/22 06:58:40;;;;;;;8.37;3.70;;;7.10;99.90;;;;;;4976494;28;20941;-66
2022/11/22 07:01:09;;;;;;;3.73;3.27;;;7.10;99.90;;;;;;4976371;28;20541;-66
2022/11/22 07:03:36;;;;;;;8.27;3.80;;;7.10;99.90;;;;;;4976492;28;20532;-66
2022/11/22 07:06:04;;;;;;;7.63;3.00;;;7.10;99.90;;;;;;4976505;28;20483;-66
2022/11/22 07:08:31;;;;;;;7.20;3.00;;;7.00;99.90;;;;;;4977197;28;20451;-66
2022/11/22 07:11:02;;;;;;;8.33;4.13;;;7.00;99.90;;;;;;4977321;28;20489;-64
2022/11/22 07:13:29;;;;;;;9.67;3.53;;;7.00;99.90;;;;;;4977234;28;20443;-66
2022/11/22 07:15:58;;;;;;;8.27;3.37;;;7.00;99.90;;;;;;4976644;28;20466;-66
2022/11/22 07:18:25;;;;;;;8.80;4.20;;;7.00;99.90;;;;;;4975542;28;20869;-66
2022/11/22 07:20:52;;;;;;;5.30;3.53;;;7.00;99.90;;;;;;4976016;28;20474;-64
2022/11/22 07:23:19;;;;;;;6.00;3.33;;;7.10;99.90;;;;;;4976720;28;20527;-66
2022/11/22 07:25:46;;;;;;;5.63;3.60;;;7.10;99.90;;;;;;4976101;28;20857;-64
2022/11/22 07:28:13;;;;;;;6.13;3.53;;;7.10;99.90;;;;;;4976633;28;20484;-66
2022/11/22 07:30:40;;;;;;;8.83;4.53;;;7.10;99.90;;;;;;4976752;28;20889;-66
2022/11/22 07:33:09;;;;;;;8.13;4.07;;;7.10;99.90;;;;;;4977280;28;20454;-66
2022/11/22 07:35:36;;;;;;;7.13;3.67;;;7.20;99.90;;;;;;4977293;28;20477;-66
2022/11/22 07:38:03;;;;;;;7.63;4.50;;;7.20;99.90;;;;;;4977317;28;20451;-64
2022/11/22 07:40:29;;;;;;;4.10;3.67;;;7.20;99.90;;;;;;4976718;28;20479;-62
2022/11/22 07:42:56;;;;;;;7.80;3.87;;;7.20;99.90;;;;;;4976583;28;20479;-63
2022/11/22 07:45:23;;;;;;;7.20;4.30;;;7.20;99.90;;;;;;4976253;28;20869;-60
2022/11/22 07:47:49;;;;;;;7.50;4.60;;;7.20;99.90;;;;;;4975458;28;20538;-62
2022/11/22 07:50:17;;;;;;;10.67;4.40;;;7.30;99.90;;;;;;4975655;28;20844;-61
2022/11/22 07:52:44;;;;;;;6.13;3.73;;;7.30;99.90;;;;;;4975716;28;20811;-62
2022/11/22 07:55:11;;;;;;;6.90;4.00;;;7.30;99.90;;;;;;4975739;28;20455;-62
2022/11/22 07:57:38;;;;;;;7.63;3.90;;;7.30;99.90;;;;;;4975651;28;20542;-60
2022/11/22 08:00:05;;;;;;;5.27;3.90;;;7.30;99.90;;;;;;4975804;28;20509;-62
2022/11/22 08:02:32;;;;;;;8.70;4.10;;;7.30;99.90;;;;;;4975207;28;20514;-61
2022/11/22 08:04:59;;;;;;;5.77;4.03;;;7.40;99.90;;;;;;4976416;28;20458;-65
2022/11/22 08:07:27;;;;;;;9.77;4.70;;;7.40;99.90;;;;;;4975714;28;20793;-65
2022/11/22 08:09:53;;;;;;;13.43;4.63;;;7.40;99.90;;;;;;4975466;28;20463;-65
2022/11/22 08:12:20;;;;;;;10.10;4.47;;;7.40;99.90;;;;;;4975155;28;21021;-65
2022/11/22 08:14:47;;;;;;;7.30;4.50;;;7.40;99.90;;;;;;4975593;28;20458;-65
2022/11/22 08:17:13;;;;;;;7.10;4.63;;;7.40;99.90;;;;;;4977385;28;20454;-65
2022/11/22 08:19:40;;;;;;;8.63;4.60;;;7.50;99.90;;;;;;4978693;28;20458;-65
2022/11/22 08:22:07;;;;;;;9.87;4.80;;;7.50;99.90;;;;;;4979173;28;20478;-65
2022/11/22 08:24:35;;;;;;;12.63;5.33;;;7.50;99.90;;;;;;4978291;28;20946;-65
2022/11/22 08:27:01;;;;;;;10.67;5.63;;;7.60;99.90;;;;;;4976309;28;20961;-65
2022/11/22 08:29:28;;;;;;;12.30;5.13;;;7.60;99.90;;;;;;4975079;28;20465;-65
2022/11/22 08:31:55;;;;;;;10.90;5.13;;;7.60;99.90;;;;;;4974907;28;20542;-64
2022/11/22 08:34:22;;;;;;;9.00;5.50;;;7.70;99.90;;;;;;4975040;28;20509;-65
2022/11/22 08:36:48;;;;;;;12.60;8.80;;;7.70;99.90;;;;;;4975190;28;20462;-65
2022/11/22 08:39:15;;;;;;;19.13;12.33;;;7.80;99.90;;;;;;4974982;28;20462;-65
2022/11/22 08:41:43;;;;;;;16.57;12.13;;;7.80;99.90;;;;;;4975042;28;20475;-65
2022/11/22 08:44:10;;;;;;;22.97;17.57;;;7.90;99.90;;;;;;4975187;28;20478;-64
2022/11/22 08:46:36;;;;;;;14.27;11.20;;;7.90;99.90;;;;;;4975138;28;20509;-61
2022/11/22 08:49:05;;;;;;;9.23;7.53;;;8.00;99.90;;;;;;4974981;28;20462;-61
2022/11/22 08:51:33;;;;;;;13.40;8.67;;;8.00;99.90;;;;;;4974811;28;20474;-62
2022/11/22 08:54:00;;;;;;;11.97;8.20;;;8.10;99.90;;;;;;4974681;28;20518;-61
2022/11/22 08:56:26;;;;;;;13.97;7.33;;;8.20;99.90;;;;;;4974859;28;20462;-61
2022/11/22 08:58:55;;;;;;;13.07;7.20;;;8.20;99.90;;;;;;4974864;28;20458;-61
2022/11/22 09:01:22;;;;;;;8.63;6.53;;;8.30;99.90;;;;;;4974558;28;20486;-61
2022/11/22 09:03:49;;;;;;;9.63;7.00;;;8.40;99.90;;;;;;4974657;28;20482;-61
2022/11/22 09:06:19;;;;;;;7.87;6.60;;;8.50;99.90;;;;;;4974788;28;20516;-61
2022/11/22 09:08:46;;;;;;;10.97;6.77;;;8.60;99.90;;;;;;4974845;28;20466;-61
2022/11/22 09:11:16;;;;;;;13.50;7.00;;;8.60;99.90;;;;;;4974786;28;20475;-62
2022/11/22 09:13:43;;;;;;;8.70;4.83;;;8.70;99.90;;;;;;4975409;28;20459;-61
2022/11/22 09:16:13;;;;;;;12.80;5.80;;;8.70;99.90;;;;;;4975553;28;20802;-61
2022/11/22 09:18:40;;;;;;;8.40;4.97;;;8.80;99.90;;;;;;4975562;28;20876;-61
2022/11/22 09:21:09;;;;;;;14.40;9.17;;;8.90;99.90;;;;;;4974490;28;20470;-61
2022/11/22 09:23:36;;;;;;;36.07;24.13;;;8.90;99.90;;;;;;4974752;28;20527;-61
2022/11/22 09:26:05;;;;;;;22.93;17.23;;;9.00;99.90;;;;;;4974705;28;20873;-61
2022/11/22 09:28:32;;;;;;;14.57;10.20;;;9.10;99.90;;;;;;4974517;28;20551;-62
2022/11/22 09:31:00;;;;;;;11.90;6.70;;;9.30;99.90;;;;;;4974500;28;20485;-61
2022/11/22 09:33:28;;;;;;;9.10;5.50;;;9.40;99.90;;;;;;4974833;28;20461;-61
2022/11/22 09:36:00;;;;;;;12.43;6.77;;;9.40;99.90;;;;;;4974519;28;20455;-61
2022/11/22 09:38:27;;;;;;;12.83;6.40;;;9.50;99.90;;;;;;4974734;28;20450;-61
2022/11/22 09:40:54;;;;;;;10.60;7.43;;;9.50;99.90;;;;;;4974638;28;20479;-61
2022/11/22 09:43:28;;;;;;;6.70;4.47;;;9.50;99.90;;;;;;4981155;28;20550;-61
2022/11/22 09:46:06;;;;;;;9.50;5.37;;;9.50;99.90;;;;;;4984530;28;20439;-61
2022/11/22 09:48:49;;;;;;;7.73;5.10;;;9.50;99.90;;;;;;4982500;28;20439;-61
2022/11/22 09:51:20;;;;;;;9.63;3.93;;;9.50;99.90;;;;;;4978930;28;20533;-61
2022/11/22 09:53:52;;;;;;;8.07;3.47;;;9.40;99.90;;;;;;4978120;28;20510;-61
2022/11/22 09:56:23;;;;;;;9.73;4.67;;;9.30;99.90;;;;;;4977856;28;20443;-61
2022/11/22 09:58:55;;;;;;;9.73;4.93;;;9.30;99.90;;;;;;4977910;28;20446;-61
2022/11/22 10:01:26;;;;;;;5.47;3.80;;;9.20;99.90;;;;;;4977446;28;20486;-61
2022/11/22 10:03:58;;;;;;;5.90;3.80;;;9.10;99.90;;;;;;4977652;28;20466;-61
2022/11/22 10:06:29;;;;;;;10.30;4.90;;;9.10;99.90;;;;;;4977637;28;20498;-61
2022/11/22 10:09:06;;;;;;;9.77;4.40;;;9.20;99.90;;;;;;4977609;28;20451;-61
2022/11/22 10:11:40;;;;;;;5.10;3.43;;;9.20;99.90;;;;;;4977487;28;20488;-61
2022/11/22 10:14:21;;;;;;;8.60;4.03;;;9.20;99.90;;;;;;4978000;28;20435;-61
2022/11/22 10:16:53;;;;;;;10.37;8.47;;;9.20;99.90;;;;;;4978797;28;20930;-61
2022/11/22 10:19:28;;;;;;;13.60;4.60;;;9.10;99.90;;;;;;4978461;28;20450;-61
2022/11/22 10:21:55;;;;;;;15.30;7.00;;;9.10;99.90;;;;;;4977461;28;20478;-61
2022/11/22 10:24:22;;;;;;;4.80;3.33;;;9.10;99.90;;;;;;4977527;28;20478;-61
2022/11/22 10:26:49;;;;;;;5.93;3.30;;;9.10;99.90;;;;;;4977159;28;20461;-61
2022/11/22 10:29:25;;;;;;;7.83;3.90;;;9.00;99.90;;;;;;4977110;28;20458;-61
2022/11/22 10:32:02;;;;;;;5.73;3.70;;;9.00;99.90;;;;;;4977065;28;20561;-61
2022/11/22 10:34:42;;;;;;;10.67;4.77;;;9.00;99.90;;;;;;4977272;28;20438;-61
2022/11/22 10:37:15;;;;;;;11.63;5.97;;;9.10;99.90;;;;;;4977260;28;20455;-61
2022/11/22 10:39:58;;;;;;;11.60;4.80;;;9.10;99.90;;;;;;4977096;28;20479;-61
2022/11/22 10:42:51;;;;;;;6.87;3.60;;;9.20;99.90;;;;;;4977256;28;20474;-61
2022/11/22 10:45:24;;;;;;;8.17;6.73;;;9.20;99.90;;;;;;4977161;28;20838;-61
2022/11/22 10:47:59;;;;;;;7.50;4.97;;;9.20;99.90;;;;;;4977042;28;20490;-61
2022/11/22 10:50:33;;;;;;;10.03;4.60;;;9.30;99.90;;;;;;4976927;28;20434;-61
2022/11/22 10:53:07;;;;;;;4.80;3.43;;;9.30;99.90;;;;;;4975918;28;20831;-61
2022/11/22 10:55:51;;;;;;;5.23;3.20;;;9.30;99.90;;;;;;4976361;28;20438;-61
2022/11/22 10:58:30;;;;;;;6.73;3.87;;;9.40;99.90;;;;;;4977015;28;20509;-61
2022/11/22 11:01:03;;;;;;;3.70;2.13;;;9.50;99.90;;;;;;4976395;28;20509;-61
2022/11/22 11:03:34;;;;;;;5.27;2.33;;;9.50;99.90;;;;;;4976639;28;20514;-61
2022/11/22 11:06:10;;;;;;;4.07;2.27;;;9.50;99.90;;;;;;4976696;28;20450;-61
2022/11/22 11:08:42;;;;;;;5.47;3.17;;;9.50;99.90;;;;;;4976694;28;20496;-61
2022/11/22 11:11:08;;;;;;;6.90;2.17;;;9.50;99.90;;;;;;4976921;28;20478;-61
2022/11/22 11:13:41;;;;;;;5.00;3.60;;;9.50;99.90;;;;;;4976569;28;20454;-61
2022/11/22 11:16:12;;;;;;;6.97;2.07;;;9.50;99.90;;;;;;4976601;28;20447;-61
2022/11/22 11:18:43;;;;;;;3.80;2.03;;;9.60;99.90;;;;;;4976589;28;20856;-61
2022/11/22 11:21:13;;;;;;;7.17;2.90;;;9.60;99.90;;;;;;4976343;28;20562;-61
2022/11/22 11:23:41;;;;;;;6.10;1.80;;;9.60;99.90;;;;;;4977646;28;20981;-62
2022/11/22 11:26:29;;;;;;;4.73;2.07;;;9.70;99.90;;;;;;4979329;28;20462;-61
2022/11/22 11:29:29;;;;;;;4.63;2.13;;;9.70;99.90;;;;;;4971655;28;20463;-60
2022/11/22 11:32:12;;;;;;;7.80;2.83;;;9.90;99.90;;;;;;4977808;28;20537;-66
2022/11/22 11:34:41;;;;;;;6.83;2.47;;;9.90;99.90;;;;;;4975904;28;20773;-66
2022/11/22 11:37:25;;;;;;;6.07;2.00;;;9.90;99.90;;;;;;4975917;28;20482;-65
2022/11/22 11:39:51;;;;;;;4.27;2.00;;;9.90;99.90;;;;;;4976111;28;20443;-62
2022/11/22 11:42:26;;;;;;;3.87;2.70;;;9.90;99.90;;;;;;4975668;28;20474;-62
2022/11/22 11:44:53;;;;;;;6.10;2.80;;;9.80;99.90;;;;;;4975783;28;20470;-61
2022/11/22 11:47:31;;;;;;;6.33;1.90;;;9.90;99.90;;;;;;4975832;28;20459;-61
2022/11/22 11:49:58;;;;;;;3.67;2.20;;;9.80;99.90;;;;;;4975732;28;20447;-61
2022/11/22 11:52:27;;;;;;;6.00;2.37;;;9.80;99.90;;;;;;4975663;28;20533;-61
2022/11/22 11:54:56;;;;;;;4.87;2.57;;;9.80;99.90;;;;;;4979305;28;20997;-61
2022/11/22 11:57:28;;;;;;;2.77;1.60;;;9.90;99.90;;;;;;4980983;28;20454;-61
2022/11/22 11:59:56;;;;;;;5.80;3.50;;;10.00;99.90;;;;;;4976837;28;20445;-61
2022/11/22 12:02:25;;;;;;;4.27;1.33;;;10.00;99.90;;;;;;4975409;28;20482;-61
2022/11/22 12:04:53;;;;;;;4.53;1.87;;;10.00;99.90;;;;;;4975732;28;20474;-61
2022/11/22 12:07:23;;;;;;;8.33;4.60;;;10.00;99.90;;;;;;4975054;28;20458;-61
2022/11/22 12:09:52;;;;;;;5.70;3.53;;;10.00;99.90;;;;;;4975490;28;20458;-61
2022/11/22 12:12:32;;;;;;;6.93;2.70;;;10.10;99.90;;;;;;4975423;28;20477;-61
2022/11/22 12:15:07;;;;;;;6.07;3.70;;;10.20;99.90;;;;;;4975215;28;20914;-61
2022/11/22 12:17:41;;;;;;;4.53;1.57;;;10.30;99.90;;;;;;4975544;28;20435;-61
2022/11/22 12:20:14;;;;;;;3.10;1.83;;;10.30;99.90;;;;;;4975249;28;20836;-61
2022/11/22 12:22:50;;;;;;;6.43;2.70;;;10.30;99.90;;;;;;4975239;28;20446;-61
2022/11/22 12:25:24;;;;;;;3.93;2.07;;;10.40;99.90;;;;;;4975242;28;20618;-61
2022/11/22 12:27:51;;;;;;;5.10;2.00;;;10.40;99.90;;;;;;4975255;28;20438;-61
2022/11/22 12:30:18;;;;;;;6.37;1.90;;;10.40;99.90;;;;;;4975060;28;20509;-61
2022/11/22 12:32:51;;;;;;;4.10;1.70;;;10.40;99.90;;;;;;4975332;28;20458;-61
2022/11/22 12:35:21;;;;;;;5.60;2.27;;;10.40;99.90;;;;;;4975313;28;20505;-61
2022/11/22 12:37:52;;;;;;;6.13;1.63;;;10.40;99.90;;;;;;4975155;28;20458;-61
2022/11/22 12:40:25;;;;;;;4.03;2.00;;;10.40;99.90;;;;;;4975089;28;20454;-61
2022/11/22 12:42:54;;;;;;;2.57;1.80;;;10.40;99.90;;;;;;4975322;28;20505;-61
2022/11/22 12:45:27;;;;;;;7.00;1.93;;;10.50;99.90;;;;;;4975046;28;20482;-61
2022/11/22 12:47:56;;;;;;;4.80;1.53;;;10.50;99.90;;;;;;4974844;28;20493;-61
2022/11/22 12:50:29;;;;;;;5.60;3.50;;;10.50;99.90;;;;;;4975007;28;20517;-62
2022/11/22 12:53:00;;;;;;;3.80;2.30;;;10.50;99.90;;;;;;4974948;28;20435;-61
2022/11/22 12:55:31;;;;;;;4.30;2.20;;;10.40;99.90;;;;;;4975257;28;20444;-61
2022/11/22 12:58:06;;;;;;;3.37;1.50;;;10.40;99.90;;;;;;4975093;28;20439;-61
2022/11/22 13:00:37;;;;;;;3.30;1.60;;;10.30;99.90;;;;;;4974622;28;20439;-61
2022/11/22 13:03:08;;;;;;;5.77;1.50;;;10.30;99.90;;;;;;4974848;28;20447;-61
2022/11/22 13:05:43;;;;;;;2.40;1.47;;;10.30;99.90;;;;;;4975204;28;20505;-61
2022/11/22 13:08:16;;;;;;;4.03;1.23;;;10.30;99.90;;;;;;4974789;28;20848;-61
2022/11/22 13:10:50;;;;;;;2.60;1.50;;;10.30;99.90;;;;;;4974724;28;20475;-61
2022/11/22 13:13:22;;;;;;;3.80;1.30;;;10.30;99.90;;;;;;4974775;28;20482;-61
2022/11/22 13:15:52;;;;;;;3.87;1.20;;;10.30;99.90;;;;;;4975558;28;20493;-61
2022/11/22 13:18:18;;;;;;;2.10;1.37;;;10.20;99.90;;;;;;4977531;28;20914;-61
2022/11/22 13:20:54;;;;;;;2.93;1.40;;;10.20;99.90;;;;;;4979122;28;20533;-62
2022/11/22 13:23:40;;;;;;;4.97;1.70;;;10.20;99.90;;;;;;4978496;28;20438;-61
2022/11/22 13:26:15;;;;;;;3.33;2.00;;;10.20;99.90;;;;;;4978338;28;20486;-61
2022/11/22 13:28:43;;;;;;;3.80;1.80;;;10.20;99.90;;;;;;4978108;28;20451;-61
2022/11/22 13:31:16;;;;;;;3.27;2.90;;;10.20;99.90;;;;;;4978290;28;20474;-62
2022/11/22 13:33:53;;;;;;;4.70;1.90;;;10.20;99.90;;;;;;4978367;28;20442;-61
2022/11/22 13:36:45;;;;;;;1.90;1.57;;;10.10;99.90;;;;;;4978457;28;20442;-61
2022/11/22 13:39:20;;;;;;;4.77;1.63;;;10.00;99.90;;;;;;4978370;28;20435;-61
2022/11/22 13:41:54;;;;;;;3.57;1.50;;;9.90;99.90;;;;;;4978211;28;20497;-61
2022/11/22 13:44:33;;;;;;;3.70;1.60;;;9.90;99.90;;;;;;4977717;28;20992;-62
2022/11/22 13:47:02;;;;;;;3.07;1.70;;;10.00;99.90;;;;;;4977743;28;20925;-61
2022/11/22 13:49:32;;;;;;;1.57;1.40;;;10.00;99.90;;;;;;4977948;28;20457;-61
2022/11/22 13:52:00;;;;;;;4.93;1.50;;;10.10;99.90;;;;;;4977930;28;20662;-61
2022/11/22 13:54:39;;;;;;;4.87;1.43;;;10.10;99.90;;;;;;4977689;28;20462;-61
2022/11/22 13:57:25;;;;;;;4.30;1.80;;;10.10;99.90;;;;;;4977807;28;20443;-61
2022/11/22 14:00:25;;;;;;;2.17;1.37;;;10.00;99.90;;;;;;4977749;28;20464;-61
2022/11/22 14:02:53;;;;;;;1.70;1.20;;;10.00;99.90;;;;;;4977713;28;20779;-61
2022/11/22 14:05:24;;;;;;;2.73;1.50;;;9.90;99.90;;;;;;4977652;28;20515;-62
2022/11/22 14:07:52;;;;;;;1.07;0.97;;;9.60;99.90;;;;;;4977333;28;20858;-61
2022/11/22 14:10:32;;;;;;;3.60;1.00;;;9.60;99.90;;;;;;4977160;28;20946;-61
2022/11/22 14:13:24;;;;;;;2.33;1.17;;;9.50;99.90;;;;;;4977610;28;20494;-61
2022/11/22 14:15:59;;;;;;;1.83;1.53;;;9.50;99.90;;;;;;4977481;28;20451;-61
2022/11/22 14:18:46;;;;;;;1.23;0.97;;;9.40;99.90;;;;;;4977507;28;20501;-61
2022/11/22 14:21:21;;;;;;;3.93;3.13;;;9.40;99.90;;;;;;4977876;28;20478;-62
2022/11/22 14:24:02;;;;;;;2.03;1.20;;;9.40;99.90;;;;;;4978906;28;20453;-61
2022/11/22 14:26:37;;;;;;;2.27;1.60;;;9.40;99.90;;;;;;4978703;28;20439;-61
2022/11/22 14:29:24;;;;;;;4.00;2.13;;;9.30;99.90;;;;;;4978531;28;20442;-61
2022/11/22 14:32:00;;;;;;;3.40;2.77;;;9.40;99.90;;;;;;4977571;28;20478;-62
2022/11/22 14:34:28;;;;;;;2.20;1.57;;;9.40;99.90;;;;;;4976909;28;20485;-62
2022/11/22 14:37:31;;;;;;;1.30;1.20;;;9.50;99.90;;;;;;4977224;28;20463;-62
2022/11/22 14:40:12;;;;;;;1.13;0.90;;;9.40;99.90;;;;;;4976876;28;20454;-62
2022/11/22 14:42:50;;;;;;;0.77;0.77;;;9.30;99.90;;;;;;4976840;28;21012;-62
2022/11/22 14:45:24;;;;;;;1.10;1.00;;;9.30;99.90;;;;;;4976948;28;20525;-62
2022/11/22 14:48:01;;;;;;;1.10;1.00;;;9.30;99.90;;;;;;4976922;28;20450;-62
2022/11/22 14:50:32;;;;;;;2.73;1.00;;;9.20;99.90;;;;;;4977319;28;20454;-62
2022/11/22 14:53:05;;;;;;;1.43;1.00;;;9.20;99.90;;;;;;4976907;28;20839;-62
2022/11/22 14:55:33;;;;;;;2.53;1.10;;;9.20;99.90;;;;;;4976502;28;20969;-62
2022/11/22 14:58:02;;;;;;;2.23;1.40;;;9.10;99.90;;;;;;4976746;28;20459;-62
2022/11/22 15:00:41;;;;;;;4.37;3.50;;;9.10;99.90;;;;;;4976374;28;20458;-62
2022/11/22 15:03:40;;;;;;;2.03;1.17;;;9.10;99.90;;;;;;4976636;28;20455;-62
2022/11/22 15:06:25;;;;;;;13.93;10.00;;;9.10;99.90;;;;;;4976258;28;20986;-62
2022/11/22 15:09:07;;;;;;;5.43;4.53;;;9.10;99.90;;;;;;4976686;28;20442;-62
2022/11/22 15:11:56;;;;;;;2.87;1.60;;;9.10;99.90;;;;;;4976126;28;20533;-62
2022/11/22 15:14:54;;;;;;;9.50;8.30;;;9.10;99.90;;;;;;4976376;28;20440;-62
2022/11/22 15:17:24;;;;;;;7.47;4.50;;;9.10;99.90;;;;;;4976348;28;20458;-62
2022/11/22 15:19:51;;;;;;;3.90;2.67;;;9.10;99.90;;;;;;4976203;28;20459;-62
2022/11/22 15:22:22;;;;;;;8.77;5.97;;;9.00;99.90;;;;;;4976265;28;20474;-62
2022/11/22 15:24:50;;;;;;;6.20;5.13;;;9.00;99.90;;;;;;4976375;28;20512;-62
2022/11/22 15:27:27;;;;;;;4.90;4.50;;;9.00;99.90;;;;;;4976215;28;20586;-62
2022/11/22 15:30:12;;;;;;;2.40;1.30;;;9.00;99.90;;;;;;4975965;28;20933;-62
2022/11/22 15:32:42;;;;;;;2.67;2.33;;;8.90;99.90;;;;;;4976185;28;20443;-62
2022/11/22 15:35:14;;;;;;;2.40;1.90;;;8.80;99.90;;;;;;4976415;28;20450;-66
2022/11/22 15:37:49;;;;;;;8.70;6.73;;;8.80;99.90;;;;;;4976019;28;20438;-66
2022/11/22 15:40:17;;;;;;;3.20;2.03;;;8.80;99.90;;;;;;4975259;28;20442;-62
2022/11/22 15:42:51;;;;;;;5.20;4.30;;;8.70;99.90;;;;;;4975509;28;20465;-62
2022/11/22 15:45:20;;;;;;;3.33;3.03;;;8.70;99.90;;;;;;4975463;28;20837;-66
2022/11/22 15:47:54;;;;;;;7.80;4.23;;;8.70;99.90;;;;;;4975852;28;20462;-66
2022/11/22 15:50:21;;;;;;;7.00;5.67;;;8.70;99.90;;;;;;4975599;28;20443;-65
2022/11/22 15:52:53;;;;;;;5.27;4.57;;;8.70;99.90;;;;;;4975704;28;20517;-62
2022/11/22 15:55:22;;;;;;;3.90;3.50;;;8.70;99.90;;;;;;4975591;28;20458;-62
2022/11/22 15:57:53;;;;;;;3.93;3.63;;;8.70;99.90;;;;;;4975633;28;20454;-62
2022/11/22 16:00:23;;;;;;;5.13;4.03;;;8.70;99.90;;;;;;4975448;28;20450;-62
2022/11/22 16:02:53;;;;;;;4.73;4.03;;;8.70;99.90;;;;;;4976291;28;20513;-62
2022/11/22 16:05:28;;;;;;;3.60;3.30;;;8.70;99.90;;;;;;4975134;28;20506;-62
2022/11/22 16:07:56;;;;;;;2.40;2.20;;;8.70;99.90;;;;;;4975808;28;20442;-62
2022/11/22 16:10:36;;;;;;;3.83;3.53;;;8.70;99.90;;;;;;4975253;28;20509;-62
2022/11/22 16:13:12;;;;;;;2.27;2.07;;;8.70;99.90;;;;;;4975641;28;20530;-62
2022/11/22 16:15:39;;;;;;;3.30;3.00;;;8.60;99.90;;;;;;4975356;28;20567;-62
2022/11/22 16:18:14;;;;;;;3.13;1.90;;;8.60;99.90;;;;;;4975291;28;20459;-62
2022/11/22 16:20:41;;;;;;;1.57;1.47;;;8.60;99.90;;;;;;4975414;28;20478;-62
2022/11/22 16:23:24;;;;;;;3.17;1.60;;;8.60;99.90;;;;;;4975393;28;20461;-62
2022/11/22 16:25:56;;;;;;;4.70;2.20;;;8.60;99.90;;;;;;4975356;28;20565;-62
2022/11/22 16:28:33;;;;;;;5.57;3.77;;;8.60;99.90;;;;;;4975173;28;20454;-64
2022/11/22 16:31:02;;;;;;;4.63;3.13;;;8.60;99.90;;;;;;4975230;28;20845;-63
2022/11/22 16:33:30;;;;;;;4.60;2.87;;;8.70;99.90;;;;;;4974839;28;20820;-62
2022/11/22 16:35:59;;;;;;;2.43;2.07;;;8.60;99.90;;;;;;4975075;28;20509;-62
2022/11/22 16:38:26;;;;;;;4.57;3.03;;;8.60;99.90;;;;;;4974907;28;20996;-62
2022/11/22 16:40:56;;;;;;;7.40;5.40;;;8.70;99.90;;;;;;4975022;28;20471;-61
2022/11/22 16:43:24;;;;;;;10.90;6.70;;;8.70;99.90;;;;;;4974887;28;20538;-61
2022/11/22 16:45:51;;;;;;;15.03;7.37;;;8.70;99.90;;;;;;4974869;28;20526;-61
2022/11/22 16:48:21;;;;;;;6.67;5.40;;;8.70;99.90;;;;;;4975142;28;20946;-61
2022/11/22 16:50:55;;;;;;;5.03;3.93;;;8.70;99.90;;;;;;4975668;28;20478;-61
2022/11/22 16:53:22;;;;;;;3.50;2.87;;;8.70;99.90;;;;;;4979028;28;20489;-61
2022/11/22 16:55:50;;;;;;;3.63;2.47;;;8.70;99.90;;;;;;4979433;28;20435;-60
2022/11/22 16:58:18;;;;;;;2.67;2.47;;;8.70;99.90;;;;;;4980204;28;20450;-60
2022/11/22 17:00:46;;;;;;;3.00;2.20;;;8.80;99.90;;;;;;4979568;28;20483;-61
2022/11/22 17:03:16;;;;;;;2.57;1.93;;;8.70;99.90;;;;;;4979897;28;20454;-61
2022/11/22 17:05:42;;;;;;;2.90;1.70;;;8.70;99.90;;;;;;4977973;28;20478;-60
2022/11/22 17:08:13;;;;;;;3.30;2.63;;;8.80;99.90;;;;;;4977380;28;20454;-61
2022/11/22 17:10:43;;;;;;;2.90;1.70;;;8.80;99.90;;;;;;4977352;28;20474;-61
2022/11/22 17:13:18;;;;;;;5.17;2.97;;;8.80;99.90;;;;;;4977606;28;20446;-61
2022/11/22 17:15:45;;;;;;;1.60;1.50;;;8.80;99.90;;;;;;4977684;28;20969;-64
2022/11/22 17:18:12;;;;;;;3.80;1.97;;;8.80;99.90;;;;;;4977412;28;20510;-64
2022/11/22 17:20:39;;;;;;;2.07;1.60;;;8.80;99.90;;;;;;4977374;28;20474;-63
2022/11/22 17:23:11;;;;;;;3.03;1.13;;;8.80;99.90;;;;;;4977576;28;20443;-61
2022/11/22 17:25:39;;;;;;;2.17;1.33;;;8.80;99.90;;;;;;4977357;28;20880;-61
2022/11/22 17:28:06;;;;;;;4.17;1.70;;;8.80;99.90;;;;;;4977238;28;20509;-61
2022/11/22 17:30:32;;;;;;;2.23;1.30;;;8.80;99.90;;;;;;4977025;28;20458;-61
2022/11/22 17:32:59;;;;;;;1.33;1.10;;;8.80;99.90;;;;;;4977434;28;20846;-61
2022/11/22 17:35:28;;;;;;;2.10;1.30;;;8.70;99.90;;;;;;4977432;28;20493;-61
2022/11/22 17:37:55;;;;;;;1.50;1.07;;;8.70;99.90;;;;;;4977636;28;20458;-61
2022/11/22 17:40:22;;;;;;;3.17;1.17;;;8.70;99.90;;;;;;4977063;28;20462;-61
2022/11/22 17:42:50;;;;;;;1.83;1.20;;;8.70;99.90;;;;;;4978189;28;20455;-61
2022/11/22 17:45:16;;;;;;;2.10;1.30;;;8.70;99.90;;;;;;4977191;28;20474;-64
2022/11/22 17:47:43;;;;;;;2.03;1.33;;;8.80;99.90;;;;;;4977134;28;20458;-61
2022/11/22 17:50:10;;;;;;;1.23;0.93;;;8.70;99.90;;;;;;4977378;28;20463;-64
2022/11/22 17:52:37;;;;;;;1.90;1.30;;;8.70;99.90;;;;;;4977192;28;20479;-61
2022/11/22 17:55:04;;;;;;;1.93;1.70;;;8.70;99.90;;;;;;4977008;28;20532;-61
2022/11/22 17:57:31;;;;;;;1.70;1.60;;;8.60;99.90;;;;;;4976918;28;20454;-61
2022/11/22 17:59:59;;;;;;;1.60;1.23;;;8.60;99.90;;;;;;4976722;28;20455;-61
2022/11/22 18:02:25;;;;;;;1.23;1.13;;;8.60;99.90;;;;;;4939808;28;1084219;-61
2022/11/22 18:04:53;;;;;;;3.40;1.60;;;8.60;99.90;;;;;;4977770;28;20780;-61
2022/11/22 18:07:22;;;;;;;1.10;1.10;;;8.60;99.90;;;;;;4977995;28;20442;-61
2022/11/22 18:09:50;;;;;;;1.33;1.23;;;8.60;99.90;;;;;;4977886;28;20537;-61
2022/11/22 18:12:17;;;;;;;1.60;0.97;;;8.60;99.90;;;;;;4979391;28;20477;-61
2022/11/22 18:14:44;;;;;;;1.63;1.17;;;8.60;99.90;;;;;;4981420;28;20512;-61